Freeport, IL

10:06 PM CDT on May 21, 2018 (GMT -0500)
Albertus

Weather History for KFEP - March, 2012

Change the Weather History Date:

Wednesday, March 21, 2012

  Actual Average Record
Temperature  
Mean Temperature 68 °F -  
Max Temperature 80 °F 45 °F 80 °F (2012)
Min Temperature 57 °F 26 °F 9 °F (1986)
Cooling Degree Days 4    
Growing Degree Days 18 (Base 50)    
Moisture  
Dew Point 52 °F    
Average Humidity 57    
Maximum Humidity 85    
Minimum Humidity 29    
Precipitation  
Precipitation 0.00 in - - ()
Sea Level Pressure  
Sea Level Pressure 30.04 in    
Wind  
Wind Speed 11 mph (SSE)    
Max Wind Speed 21 mph    
Max Gust Speed 28 mph    
Visibility 10 miles    
Events      
Averages and records for this station are not official NWS values.
T = Trace of Precipitation, MM = Missing Value Source: NWS Daily Summary

Daily Weather History Graph

Daily Weather History Graph

Search for Another Location

Airport or City:

Astronomy

Mar. 21, 2012 Rise Set
Actual Time 6:58 AM CDT 7:12 PM CDT
Civil Twilight 6:31 AM CDT 7:40 PM CDT
Nautical Twilight 5:58 AM CDT 8:13 PM CDT
Astronomical Twilight 5:24 AM CDT 8:46 PM CDT
Moon 6:10 AM CDT (3/21) 6:39 PM CDT (3/21)
Length of Visible Light 13h 09m
Length of Day
12h 13m
Waning Crescent, 1% of the Moon is Illuminated
Mar 21
Waning Crescent
Mar 22
New
Mar 30
First Quarter
Apr 6
Full
Apr 13
Last Quarter

Hourly Weather History & Observations

Time (CDT) Temp. Dew Point Humidity Pressure Visibility Wind Dir Wind Speed Gust Speed Precip Events Conditions
12:15 AM 62.1 °F 49.6 °F 64% 30.03 in 10.0 mi SE 8.1 mph - N/A   Clear
12:35 AM 59.5 °F 49.3 °F 69% 30.02 in 10.0 mi ESE 6.9 mph - N/A   Clear
12:55 AM 62.1 °F 50.4 °F 65% 30.01 in 10.0 mi ESE 9.2 mph - N/A   Clear
1:15 AM 61.2 °F 50.2 °F 67% 30.01 in 10.0 mi ESE 8.1 mph - N/A   Clear
1:35 AM 60.8 °F 50.0 °F 68% 30.01 in 10.0 mi ESE 9.2 mph - N/A   Clear
1:55 AM 58.1 °F 50.2 °F 75% 30.01 in 10.0 mi ESE 9.2 mph - N/A   Clear
2:15 AM 59.5 °F 51.8 °F 76% 30.01 in 10.0 mi ESE 8.1 mph - N/A   Clear
2:35 AM 59.5 °F 52.0 °F 76% 30.01 in 10.0 mi ESE 8.1 mph - N/A   Clear
2:55 AM 62.1 °F 53.6 °F 74% 30.01 in 10.0 mi ESE 10.4 mph - N/A   Clear
3:15 AM 62.1 °F 54.1 °F 75% 30.00 in 10.0 mi ESE 9.2 mph - N/A   Scattered Clouds
3:35 AM 62.1 °F 54.0 °F 75% 30.00 in 10.0 mi ESE 9.2 mph - N/A   Mostly Cloudy
3:55 AM 62.1 °F 54.5 °F 76% 30.00 in 10.0 mi SE 8.1 mph - N/A   Scattered Clouds
4:15 AM 62.2 °F 54.5 °F 76% 30.00 in 10.0 mi SE 10.4 mph - N/A   Scattered Clouds
4:35 AM 63.9 °F 54.9 °F 72% 30.00 in 10.0 mi SE 12.7 mph - N/A   Mostly Cloudy
4:55 AM 63.5 °F 54.9 °F 73% 30.01 in 10.0 mi SE 11.5 mph - N/A   Scattered Clouds
5:15 AM 62.2 °F 54.5 °F 76% 30.02 in 10.0 mi SE 10.4 mph - N/A   Scattered Clouds
5:35 AM 62.1 °F 54.7 °F 77% 30.02 in 10.0 mi SSE 10.4 mph - N/A   Scattered Clouds
5:55 AM 62.1 °F 55.6 °F 79% 30.03 in 10.0 mi SSE 8.1 mph - N/A   Clear
6:15 AM 59.5 °F 54.5 °F 83% 30.04 in 10.0 mi SSE 8.1 mph - N/A   Scattered Clouds
6:35 AM 59.5 °F 54.7 °F 84% 30.04 in 10.0 mi SE 8.1 mph - N/A   Scattered Clouds
6:55 AM 57.2 °F 52.5 °F 84% 30.04 in 10.0 mi SE 6.9 mph - N/A   Scattered Clouds
7:15 AM 57.2 °F 52.7 °F 85% 30.05 in 10.0 mi SE 8.1 mph - N/A   Clear
7:35 AM 59.5 °F 54.9 °F 84% 30.06 in 10.0 mi SE 8.1 mph - N/A   Mostly Cloudy
7:55 AM 59.5 °F 54.5 °F 83% 30.07 in 10.0 mi SE 8.1 mph - N/A   Scattered Clouds
8:15 AM 62.1 °F 56.3 °F 81% 30.07 in 10.0 mi SE 6.9 mph - N/A   Scattered Clouds
8:35 AM 64.6 °F 56.3 °F 74% 30.08 in 10.0 mi SE 11.5 mph - N/A   Clear
8:55 AM 65.7 °F 56.3 °F 72% 30.08 in 10.0 mi SE 11.5 mph - N/A   Scattered Clouds
9:15 AM 69.8 °F 59.0 °F 68% 30.08 in 10.0 mi SE 11.5 mph - N/A   Scattered Clouds
9:35 AM 70.5 °F 58.1 °F 65% 30.09 in 10.0 mi SSE 15.0 mph - N/A   Mostly Cloudy
9:55 AM 72.1 °F 58.6 °F 62% 30.09 in 10.0 mi SSE 12.7 mph - N/A   Scattered Clouds
10:15 AM 72.1 °F 56.8 °F 58% 30.09 in 10.0 mi South 15.0 mph 19.6 mph N/A   Clear
10:35 AM 72.9 °F 56.7 °F 57% 30.08 in 10.0 mi SSE 16.1 mph - N/A   Clear
10:55 AM 75.7 °F 57.2 °F 52% 30.08 in 10.0 mi SSE 16.1 mph 20.7 mph N/A   Clear
11:15 AM 77.2 °F 57.6 °F 51% 30.07 in 10.0 mi SSE 15.0 mph - N/A   Clear
11:35 AM 77.2 °F 56.8 °F 49% 30.07 in 10.0 mi South 12.7 mph - N/A   Clear
11:55 AM 77.2 °F 54.9 °F 46% 30.07 in 10.0 mi SSE 12.7 mph 24.2 mph N/A   Clear
12:15 PM 78.8 °F 54.9 °F 44% 30.07 in 10.0 mi South 18.4 mph 27.6 mph N/A   Clear
12:35 PM 77.5 °F 53.8 °F 44% 30.06 in 10.0 mi South 13.8 mph 23.0 mph N/A   Clear
12:55 PM 79.7 °F 53.8 °F 41% 30.06 in 10.0 mi South 20.7 mph 24.2 mph N/A   Scattered Clouds
1:15 PM 79.7 °F 52.2 °F 38% 30.05 in 10.0 mi South 16.1 mph 24.2 mph N/A   Clear
1:35 PM 78.4 °F 52.0 °F 40% 30.04 in 10.0 mi South 18.4 mph 25.3 mph N/A   Scattered Clouds
1:55 PM 79.7 °F 51.4 °F 37% 30.03 in 10.0 mi South 15.0 mph 19.6 mph N/A   Scattered Clouds
2:15 PM 79.7 °F 49.3 °F 34% 30.04 in 10.0 mi South 17.3 mph - N/A   Scattered Clouds
2:35 PM 79.7 °F 47.1 °F 32% 30.02 in 10.0 mi South 17.3 mph 21.9 mph N/A   Scattered Clouds
2:55 PM 79.7 °F 46.0 °F 30% 30.02 in 10.0 mi SSE 19.6 mph - N/A   Scattered Clouds
3:15 PM 80.1 °F 45.5 °F 30% 30.02 in 10.0 mi South 18.4 mph 24.2 mph N/A   Clear
3:35 PM 80.8 °F 46.0 °F 29% 30.02 in 10.0 mi South 18.4 mph 23.0 mph N/A   Scattered Clouds
3:55 PM 79.5 °F 45.7 °F 30% 30.02 in 10.0 mi SSE 19.6 mph 27.6 mph N/A   Scattered Clouds
4:15 PM 79.7 °F 45.3 °F 30% 30.02 in 10.0 mi SSE 18.4 mph 25.3 mph N/A   Scattered Clouds
4:35 PM 79.7 °F 46.0 °F 30% 30.02 in 10.0 mi SSE 17.3 mph - N/A   Clear
4:55 PM 80.4 °F 46.2 °F 30% 30.02 in 10.0 mi SSE 15.0 mph 18.4 mph N/A   Scattered Clouds
5:15 PM 79.7 °F 45.0 °F 29% 30.02 in 10.0 mi SSE 16.1 mph - N/A   Mostly Cloudy
5:35 PM 79.7 °F 45.1 °F 29% 30.02 in 10.0 mi South 12.7 mph 23.0 mph N/A   Mostly Cloudy
5:55 PM 78.3 °F 46.0 °F 32% 30.02 in 10.0 mi South 9.2 mph - N/A   Clear
6:15 PM 77.2 °F 48.4 °F 36% 30.02 in 10.0 mi South 9.2 mph - N/A   Clear
6:35 PM 75.6 °F 48.7 °F 39% 30.03 in 10.0 mi South 9.2 mph - N/A   Clear
6:55 PM 73.2 °F 48.0 °F 41% 30.03 in 10.0 mi South 8.1 mph - N/A   Scattered Clouds
7:15 PM 72.1 °F 50.0 °F 46% 30.03 in 10.0 mi South 5.8 mph - N/A   Clear
7:35 PM 69.6 °F 50.9 °F 51% 30.03 in 10.0 mi SSE 3.5 mph - N/A   Clear
7:55 PM 65.7 °F 50.0 °F 57% 30.04 in 10.0 mi SE 3.5 mph - N/A   Clear
8:15 PM 64.8 °F 50.0 °F 59% 30.04 in 10.0 mi SSE 4.6 mph - N/A   Clear
8:35 PM 64.6 °F 50.4 °F 60% 30.05 in 10.0 mi SSE 4.6 mph - N/A   Clear
8:55 PM 62.6 °F 50.0 °F 63% 30.04 in 10.0 mi Calm Calm - N/A   Clear
9:15 PM 62.1 °F 50.9 °F 67% 30.04 in 10.0 mi ESE 3.5 mph - N/A   Clear
9:35 PM 62.6 °F 51.8 °F 68% 30.04 in 10.0 mi ESE 3.5 mph - N/A   Clear
9:55 PM 58.5 °F 50.9 °F 76% 30.04 in 10.0 mi Calm Calm - N/A   Clear
10:15 PM 63.1 °F 51.1 °F 65% 30.05 in 10.0 mi Calm Calm - N/A   Clear
10:35 PM 62.1 °F 51.8 °F 69% 30.06 in 10.0 mi Calm Calm - N/A   Clear
10:55 PM 62.1 °F 53.8 °F 74% 30.06 in 10.0 mi East 4.6 mph - N/A   Scattered Clouds
11:15 PM 62.1 °F 53.8 °F 74% 30.06 in 10.0 mi ESE 4.6 mph - N/A   Clear
11:35 PM 62.1 °F 52.9 °F 72% 30.06 in 10.0 mi East 4.6 mph - N/A   Clear
11:55 PM 62.1 °F 52.5 °F 71% 30.06 in 10.0 mi Calm Calm - N/A   Clear